Pagrindinis puslapis
METAR-TAF:

METAR-TAF

Oro uostai :

Nadžafas, Irakas

platuma: 31-59-23N, ilguma: 44-24-15E, Aukštis: 31 m

Dabartinis oras

Ataskaita buvo paskelbta 1 valandą ir 17 minutes, ne 11:00 UTC
Ramus vėjas
Temperatūra 22°C
Drėgmė 35%
Slėgis 1016 hPa
Matomumas 10 km arba daugiau
nėra debesų žemiau 1500 m ir nėra kamuolinių lietaus debesų

METAR: ORNI 211100Z 00000KT CAVOK 22/06 Q1016 NOSIG

Laikas: 15:17 (12:17 UTC)

Prognozė

Ataskaita buvo paskelbta 2 valandos ir 17 minutes, ne 10:00 UTC
Prognozė galioja nuo 21 metu 12 UTC su 22 metu 12 UTC
Vėjas 14 kt iš Šiaurės/Šiaurės Vakarų
Matomumas: 7000 m

TAF: ORNI 211000Z 2112/2212 34014KT 7000 NSC

Orai ataskaitas ir orų prognozės (METAR, TAF).

turimą stotys yra geltonos ir raudonos taškus žemėlapyje.

Perkelti pele per norėdami pamatyti stoties vardą.

Tada spustelėkite, norėdami matyti oro stebėjimo ir prognozės.

Norėdami pakeisti žemėlapį: spustelėkite ant žalios mygtukų su juodo kryžiaus žemyn,; žalią mygtuką su brūkšneliu, jei norite nutolinti; arba žalių rodyklių gretimoms žemėlapius.


METAR-TAF: